createdAt,value
2017-05-19T00:00:39.186Z,16.98
2017-05-19T00:01:54.727Z,17.05
2017-05-19T00:03:07.494Z,16.99
2017-05-19T00:04:20.170Z,17.01
2017-05-19T00:05:35.526Z,16.94
2017-05-19T00:06:50.917Z,16.93
2017-05-19T00:08:03.888Z,16.98
2017-05-19T00:09:19.260Z,16.98
2017-05-19T00:10:33.336Z,16.89
2017-05-19T00:11:47.450Z,16.9
2017-05-19T00:13:01.576Z,16.83
2017-05-19T00:14:17.001Z,16.89
2017-05-19T00:15:32.353Z,16.9
2017-05-19T00:16:47.914Z,16.74
2017-05-19T00:18:03.511Z,16.8
2017-05-19T00:19:18.865Z,16.82
2017-05-19T00:20:34.232Z,16.83
2017-05-19T00:21:49.624Z,16.69
2017-05-19T00:23:05.213Z,16.87
2017-05-19T00:24:20.228Z,16.87
2017-05-19T00:25:34.323Z,16.83
2017-05-19T00:26:49.689Z,16.83
2017-05-19T00:28:03.987Z,16.84
2017-05-19T00:29:19.442Z,16.86
2017-05-19T00:30:34.863Z,16.8
2017-05-19T00:31:50.208Z,16.79
2017-05-19T00:33:04.099Z,16.82
2017-05-19T00:34:19.466Z,16.87
2017-05-19T00:35:32.158Z,16.8
2017-05-19T00:36:44.799Z,16.75
2017-05-19T00:38:00.366Z,16.8
2017-05-19T00:39:13.128Z,16.79
2017-05-19T00:40:28.515Z,16.86
2017-05-19T00:41:42.455Z,16.84
2017-05-19T00:42:57.857Z,16.83
2017-05-19T00:44:11.976Z,16.86
2017-05-19T00:45:25.894Z,16.89
2017-05-19T00:46:39.935Z,16.86
2017-05-19T00:47:52.696Z,16.8
2017-05-19T00:49:08.256Z,16.9
2017-05-19T00:50:23.606Z,16.89
2017-05-19T00:51:37.750Z,16.84
2017-05-19T00:52:51.852Z,16.93
2017-05-19T00:54:07.031Z,17.04
2017-05-19T00:55:22.377Z,16.93
2017-05-19T00:56:37.975Z,16.94
2017-05-19T00:57:53.535Z,16.98
2017-05-19T00:59:07.800Z,16.94
2017-05-19T01:00:23.151Z,16.94
2017-05-19T01:01:38.525Z,17.01
2017-05-19T01:02:52.586Z,16.99
2017-05-19T01:04:08.127Z,17.02
2017-05-19T01:05:23.510Z,17.01
2017-05-19T01:06:37.732Z,16.91
2017-05-19T01:07:51.722Z,17.02
2017-05-19T01:09:07.270Z,17.06
2017-05-19T01:10:22.600Z,17.09
2017-05-19T01:11:37.984Z,17.09
2017-05-19T01:12:53.319Z,17.09
2017-05-19T01:14:09.171Z,17.04
2017-05-19T01:15:24.509Z,17.05
2017-05-19T01:16:39.857Z,17.09
2017-05-19T01:17:55.327Z,17.02
2017-05-19T01:19:08.116Z,17.08
2017-05-19T01:20:23.772Z,17.08
2017-05-19T01:21:39.111Z,17.06
2017-05-19T01:22:54.561Z,17.04
2017-05-19T01:24:10.037Z,17.12
2017-05-19T01:25:24.357Z,17.01
2017-05-19T01:26:39.714Z,16.93
2017-05-19T01:27:55.165Z,16.8
2017-05-19T01:29:10.495Z,16.59
2017-05-19T01:30:26.039Z,16.44
2017-05-19T01:31:40.105Z,16.35
2017-05-19T01:32:55.545Z,16.35
2017-05-19T01:34:10.872Z,16.32
2017-05-19T01:35:23.843Z,16.39
2017-05-19T01:36:39.184Z,16.42
2017-05-19T01:37:54.637Z,16.28
2017-05-19T01:39:09.982Z,16.31
2017-05-19T01:40:25.784Z,16.35
2017-05-19T01:41:38.477Z,16.25
2017-05-19T01:42:52.537Z,16.25
2017-05-19T01:44:06.577Z,16.21
2017-05-19T01:45:20.831Z,16.19
2017-05-19T01:46:36.418Z,16.2
2017-05-19T01:47:50.467Z,16.24
2017-05-19T01:49:04.413Z,16.36
2017-05-19T01:50:19.959Z,16.36
2017-05-19T01:51:35.316Z,16.36
2017-05-19T01:52:48.089Z,16.29
2017-05-19T01:54:02.002Z,16.24
2017-05-19T01:55:17.552Z,16.25
2017-05-19T01:56:32.900Z,16.21
2017-05-19T01:57:48.241Z,16.21
2017-05-19T01:59:03.637Z,16.27
2017-05-19T02:00:19.182Z,16.16
2017-05-19T02:01:34.798Z,16.21
2017-05-19T02:02:50.381Z,16.31
2017-05-19T02:04:05.746Z,16.34
2017-05-19T02:05:21.291Z,16.35
2017-05-19T02:06:36.625Z,16.38
2017-05-19T02:07:51.988Z,16.44
2017-05-19T02:09:06.050Z,16.46
2017-05-19T02:10:20.112Z,16.53
2017-05-19T02:11:32.947Z,16.43
2017-05-19T02:12:47.926Z,16.46
2017-05-19T02:14:03.253Z,16.49
2017-05-19T02:15:18.595Z,16.46
2017-05-19T02:16:33.002Z,16.44
2017-05-19T02:17:44.466Z,16.49
2017-05-19T02:18:57.273Z,16.43
2017-05-19T02:20:12.866Z,16.49
2017-05-19T02:21:26.984Z,16.49
2017-05-19T02:22:42.413Z,16.46
2017-05-19T02:23:57.766Z,16.43
2017-05-19T02:25:13.112Z,16.42
2017-05-19T02:26:27.006Z,16.46
2017-05-19T02:27:41.061Z,16.39
2017-05-19T02:28:56.434Z,16.38
2017-05-19T02:30:10.490Z,16.43
2017-05-19T02:31:25.020Z,16.43
2017-05-19T02:32:40.372Z,16.43
2017-05-19T02:33:54.672Z,16.38
2017-05-19T02:35:09.234Z,16.35
2017-05-19T02:36:24.598Z,16.34
2017-05-19T02:37:40.124Z,16.31
2017-05-19T02:38:55.462Z,16.39
2017-05-19T02:40:11.074Z,16.34
2017-05-19T02:41:25.007Z,16.28
2017-05-19T02:42:40.540Z,16.44
2017-05-19T02:43:54.667Z,16.44
2017-05-19T02:45:10.044Z,16.42
2017-05-19T02:46:25.454Z,16.34
2017-05-19T02:47:38.518Z,16.39
2017-05-19T02:48:53.884Z,16.31
2017-05-19T02:50:09.256Z,16.34
2017-05-19T02:51:24.603Z,16.29
2017-05-19T02:52:38.879Z,16.34
2017-05-19T02:53:54.246Z,16.34
2017-05-19T02:55:07.013Z,16.32
2017-05-19T02:56:21.109Z,16.32
2017-05-19T02:57:36.659Z,16.38
2017-05-19T02:58:50.742Z,16.27
2017-05-19T03:00:06.083Z,16.38
2017-05-19T03:01:21.427Z,16.35
2017-05-19T03:02:36.957Z,16.38
2017-05-19T03:03:52.294Z,16.36
2017-05-19T03:05:05.121Z,16.44
2017-05-19T03:06:19.186Z,16.44
2017-05-19T03:07:33.483Z,16.44
2017-05-19T03:08:48.826Z,16.34
2017-05-19T03:10:02.945Z,16.42
2017-05-19T03:11:16.696Z,16.39
2017-05-19T03:12:32.063Z,16.46
2017-05-19T03:13:46.305Z,16.44
2017-05-19T03:15:00.233Z,16.5
2017-05-19T03:16:14.281Z,16.56
2017-05-19T03:17:28.405Z,16.47
2017-05-19T03:18:43.929Z,16.51
2017-05-19T03:19:59.272Z,16.57
2017-05-19T03:21:14.971Z,16.68
2017-05-19T03:22:30.329Z,16.59
2017-05-19T03:23:45.895Z,16.68
2017-05-19T03:25:01.258Z,16.74
2017-05-19T03:26:16.596Z,16.8
2017-05-19T03:27:31.953Z,16.76
2017-05-19T03:28:47.521Z,16.69
2017-05-19T03:30:03.097Z,16.74
2017-05-19T03:31:18.440Z,16.72
2017-05-19T03:32:33.408Z,16.75
2017-05-19T03:33:48.620Z,16.74
2017-05-19T03:35:04.061Z,16.71
2017-05-19T03:36:19.447Z,16.71
2017-05-19T03:37:34.925Z,16.68
2017-05-19T03:38:50.514Z,16.56
2017-05-19T03:40:05.884Z,16.65
2017-05-19T03:41:21.221Z,16.66
2017-05-19T03:42:36.624Z,16.69
2017-05-19T03:43:52.217Z,16.59
2017-05-19T03:45:07.597Z,16.57
2017-05-19T03:46:22.982Z,16.61
2017-05-19T03:47:35.391Z,16.56
2017-05-19T03:48:50.955Z,16.68
2017-05-19T03:50:05.134Z,16.76
2017-05-19T03:51:20.495Z,16.72
2017-05-19T03:52:35.873Z,16.79
2017-05-19T03:53:50.046Z,16.82
2017-05-19T03:55:05.393Z,16.83
2017-05-19T03:56:20.735Z,16.86
2017-05-19T03:57:33.493Z,16.83
2017-05-19T03:58:47.627Z,16.9
2017-05-19T04:00:03.004Z,16.86
2017-05-19T04:01:17.122Z,16.76
2017-05-19T04:02:32.464Z,16.75
2017-05-19T04:03:46.515Z,16.72
2017-05-19T04:05:01.700Z,16.79
2017-05-19T04:06:15.761Z,16.74
2017-05-19T04:07:31.124Z,16.75
2017-05-19T04:08:45.272Z,16.79
2017-05-19T04:10:00.948Z,16.74
2017-05-19T04:11:16.283Z,16.72
2017-05-19T04:12:31.691Z,16.74
2017-05-19T04:13:45.817Z,16.74
2017-05-19T04:15:01.349Z,16.72
2017-05-19T04:16:16.727Z,16.75
2017-05-19T04:17:32.082Z,16.83
2017-05-19T04:18:47.476Z,16.82
2017-05-19T04:20:03.041Z,16.8
2017-05-19T04:21:18.526Z,16.84
2017-05-19T04:22:32.580Z,16.82
2017-05-19T04:24:16.456Z,16.8
2017-05-19T04:25:31.804Z,16.8
2017-05-19T04:26:47.233Z,16.84
2017-05-19T04:28:02.571Z,16.87
2017-05-19T04:29:15.183Z,16.84
2017-05-19T04:30:29.383Z,16.89
2017-05-19T04:31:43.707Z,16.89
2017-05-19T04:32:57.766Z,16.93
2017-05-19T04:34:12.026Z,16.93
2017-05-19T04:35:26.146Z,16.96
2017-05-19T04:36:40.067Z,17.05
2017-05-19T04:37:53.762Z,17.01
2017-05-19T04:39:07.940Z,16.91
2017-05-19T04:40:23.536Z,16.94
2017-05-19T04:41:38.885Z,17.01
2017-05-19T04:42:51.640Z,16.99
2017-05-19T04:44:05.689Z,16.99
2017-05-19T04:45:21.249Z,16.91
2017-05-19T04:46:36.862Z,16.99
2017-05-19T04:47:50.809Z,16.99
2017-05-19T04:49:06.161Z,16.99
2017-05-19T04:50:21.693Z,16.99
2017-05-19T04:51:37.020Z,17.04
2017-05-19T04:52:51.541Z,17.04
2017-05-19T04:54:06.911Z,17.21
2017-05-19T04:55:21.181Z,17.19
2017-05-19T04:56:35.228Z,17.28
2017-05-19T04:57:49.291Z,17.31
2017-05-19T04:59:04.674Z,17.27
2017-05-19T05:00:20.217Z,17.36
2017-05-19T05:01:34.267Z,17.28
2017-05-19T05:02:49.739Z,17.39
2017-05-19T05:04:05.071Z,17.42
2017-05-19T05:05:19.353Z,17.47
2017-05-19T05:06:34.711Z,17.5
2017-05-19T05:07:48.847Z,17.52
2017-05-19T05:09:04.230Z,17.6
2017-05-19T05:10:19.774Z,17.72
2017-05-19T05:11:35.136Z,17.64
2017-05-19T05:12:49.334Z,17.62
2017-05-19T05:14:04.697Z,17.68
2017-05-19T05:15:18.630Z,17.83
2017-05-19T05:16:32.919Z,17.87
2017-05-19T05:17:48.282Z,18
2017-05-19T05:19:01.173Z,17.94
2017-05-19T05:20:15.231Z,18.01
2017-05-19T05:21:31.065Z,18.12
2017-05-19T05:22:46.640Z,18.16
2017-05-19T05:24:02.032Z,18.17
2017-05-19T05:25:17.510Z,18.13
2017-05-19T05:26:31.825Z,18.28
2017-05-19T05:27:47.170Z,18.35
2017-05-19T05:29:02.536Z,18.3
2017-05-19T05:30:16.589Z,18.34
2017-05-19T05:31:32.234Z,18.49
2017-05-19T05:32:46.321Z,18.49
2017-05-19T05:34:01.678Z,18.49
2017-05-19T05:35:15.796Z,18.62
2017-05-19T05:36:31.481Z,18.56
2017-05-19T05:37:46.852Z,18.56
2017-05-19T05:39:00.901Z,18.63
2017-05-19T05:40:14.952Z,18.67
2017-05-19T05:41:30.500Z,18.63
2017-05-19T05:42:44.778Z,18.78
2017-05-19T05:43:58.951Z,18.79
2017-05-19T05:45:11.631Z,18.79
2017-05-19T05:46:27.078Z,18.9
2017-05-19T05:47:42.919Z,18.91
2017-05-19T05:48:58.320Z,18.98
2017-05-19T05:50:12.358Z,19
2017-05-19T05:51:27.742Z,18.95
2017-05-19T05:52:42.020Z,19.02
2017-05-19T05:53:56.728Z,19.08
2017-05-19T05:55:12.112Z,18.95
2017-05-19T05:56:24.947Z,18.97
2017-05-19T05:57:37.608Z,18.98
2017-05-19T05:58:53.221Z,19.02
2017-05-19T06:00:08.567Z,18.94
2017-05-19T06:01:24.002Z,18.97
2017-05-19T06:02:39.815Z,18.93
2017-05-19T06:03:55.573Z,18.95
2017-05-19T06:05:09.683Z,18.95
2017-05-19T06:06:22.451Z,19.06
2017-05-19T06:07:38.267Z,19.09
2017-05-19T06:08:53.615Z,19.12
2017-05-19T06:10:09.086Z,19.13
2017-05-19T06:11:23.219Z,19.15
2017-05-19T06:12:39.021Z,19.28
2017-05-19T06:13:54.370Z,19.25
2017-05-19T06:15:09.813Z,19.34
2017-05-19T06:16:23.532Z,19.3
2017-05-19T06:17:39.081Z,19.27
2017-05-19T06:18:54.544Z,19.33
2017-05-19T06:20:09.881Z,19.3
2017-05-19T06:21:23.930Z,19.34
2017-05-19T06:22:39.500Z,19.31
2017-05-19T06:23:53.592Z,19.31
2017-05-19T06:25:08.938Z,19.3
2017-05-19T06:26:24.364Z,19.3
2017-05-19T06:27:39.899Z,19.28
2017-05-19T06:28:55.258Z,19.34
2017-05-19T06:30:10.627Z,19.42
2017-05-19T06:31:24.750Z,19.6
2017-05-19T06:32:39.105Z,19.64
2017-05-19T06:33:53.274Z,19.73
2017-05-19T06:35:08.903Z,19.76
2017-05-19T06:36:22.960Z,19.82
2017-05-19T06:37:38.497Z,19.88
2017-05-19T06:38:52.729Z,19.95
2017-05-19T06:40:08.062Z,20
2017-05-19T06:41:22.494Z,20.12
2017-05-19T06:42:37.914Z,20.11
2017-05-19T06:43:53.455Z,20.24
2017-05-19T06:45:08.952Z,20.28
2017-05-19T06:46:24.341Z,20.38
2017-05-19T06:47:39.681Z,20.43
2017-05-19T06:48:54.098Z,20.48
2017-05-19T06:50:09.511Z,20.43
2017-05-19T06:51:24.905Z,20.53
2017-05-19T06:52:40.418Z,20.43
2017-05-19T06:53:54.965Z,20.49
2017-05-19T06:55:10.324Z,20.45
2017-05-19T06:56:25.850Z,20.54
2017-05-19T06:57:41.266Z,20.54
2017-05-19T06:58:57.116Z,20.48
2017-05-19T07:00:12.563Z,20.51
2017-05-19T07:01:25.221Z,20.46
2017-05-19T07:02:40.577Z,20.51
2017-05-19T07:03:56.201Z,20.54
2017-05-19T07:05:10.270Z,20.56
2017-05-19T07:06:25.913Z,20.51
2017-05-19T07:07:41.259Z,20.57
2017-05-19T07:08:56.869Z,20.58
2017-05-19T07:10:12.238Z,20.64
2017-05-19T07:11:26.301Z,20.61
2017-05-19T07:12:41.645Z,20.6
2017-05-19T07:13:57.262Z,20.66
2017-05-19T07:15:12.634Z,20.61
2017-05-19T07:16:26.700Z,20.63
2017-05-19T07:17:42.055Z,20.68
2017-05-19T07:18:55.077Z,20.58
2017-05-19T07:20:09.169Z,20.73
2017-05-19T07:21:24.553Z,20.82
2017-05-19T07:22:39.904Z,20.76
2017-05-19T07:23:55.468Z,20.82
2017-05-19T07:25:10.839Z,20.82
2017-05-19T07:26:23.857Z,20.88
2017-05-19T07:27:39.492Z,20.98
2017-05-19T07:28:53.818Z,20.97
2017-05-19T07:30:06.459Z,20.97
2017-05-19T07:31:21.829Z,21
2017-05-19T07:32:37.175Z,20.98
2017-05-19T07:33:52.777Z,21.06
2017-05-19T07:35:06.863Z,21.09
2017-05-19T07:36:22.082Z,21.06
2017-05-19T07:37:37.682Z,21.13
2017-05-19T07:38:53.223Z,21.12
2017-05-19T07:40:07.449Z,21.13
2017-05-19T07:41:21.143Z,21.15
2017-05-19T07:42:35.080Z,21.16
2017-05-19T07:43:45.279Z,21.3
2017-05-19T07:45:00.841Z,21.35
2017-05-19T07:46:16.414Z,21.46
2017-05-19T07:47:31.791Z,21.49
2017-05-19T07:48:45.868Z,21.58
2017-05-19T07:50:01.582Z,21.53
2017-05-19T07:51:14.289Z,21.66
2017-05-19T07:52:28.230Z,21.72
2017-05-19T07:53:43.859Z,21.81
2017-05-19T07:54:59.427Z,21.94
2017-05-19T07:56:14.783Z,21.98
2017-05-19T07:57:27.566Z,22.15
2017-05-19T07:58:42.949Z,22.13
2017-05-19T07:59:58.527Z,22.03
2017-05-19T08:01:13.739Z,22.02
2017-05-19T08:02:28.731Z,22.06
2017-05-19T08:03:44.099Z,22.11
2017-05-19T08:04:59.759Z,22.09
2017-05-19T08:06:15.125Z,22.01
2017-05-19T08:07:30.578Z,22.05
2017-05-19T08:08:44.667Z,22.01
2017-05-19T08:09:59.006Z,21.96
2017-05-19T08:11:14.736Z,21.88
2017-05-19T08:12:27.401Z,21.86
2017-05-19T08:13:42.802Z,21.76
2017-05-19T08:14:57.089Z,21.73
2017-05-19T08:16:12.693Z,21.66
2017-05-19T08:17:28.069Z,21.61
2017-05-19T08:18:42.071Z,21.65
2017-05-19T08:19:56.425Z,21.71
2017-05-19T08:21:10.584Z,21.76
2017-05-19T08:22:24.651Z,21.72
2017-05-19T08:23:40.006Z,21.88
2017-05-19T08:24:54.234Z,22.05
2017-05-19T08:26:09.852Z,22.01
2017-05-19T08:27:22.519Z,22.06
2017-05-19T08:28:35.310Z,22.18
2017-05-19T08:29:49.379Z,22.15
2017-05-19T08:31:03.241Z,22.24
2017-05-19T08:32:16.219Z,22.26
2017-05-19T08:33:30.189Z,22.27
2017-05-19T08:34:45.723Z,22.3
2017-05-19T08:36:01.155Z,22.46
2017-05-19T08:37:16.714Z,22.55
2017-05-19T08:38:30.832Z,22.63
2017-05-19T08:39:44.895Z,22.85
2017-05-19T08:41:00.273Z,23.14
2017-05-19T08:42:14.527Z,23.76
2017-05-19T08:43:28.645Z,24.5
2017-05-19T08:44:42.588Z,25.06
2017-05-19T08:45:58.205Z,25.64
2017-05-19T08:47:13.443Z,26.21
2017-05-19T08:48:28.813Z,26.7
2017-05-19T08:49:44.486Z,27.07
2017-05-19T08:50:59.886Z,27.48
2017-05-19T08:52:14.200Z,27.83
2017-05-19T08:53:29.568Z,28.13
2017-05-19T08:54:44.934Z,28.2
2017-05-19T08:56:00.372Z,28.42
2017-05-19T08:57:15.927Z,28.29
2017-05-19T08:58:29.959Z,28.49
2017-05-19T08:59:44.147Z,28.45
2017-05-19T09:00:59.898Z,28.49
2017-05-19T09:02:15.496Z,28.69
2017-05-19T09:03:30.858Z,28.69
2017-05-19T09:04:45.206Z,28.91
2017-05-19T09:06:00.566Z,29.09
2017-05-19T09:07:16.485Z,29.26
2017-05-19T09:08:31.854Z,29.28
2017-05-19T09:09:47.292Z,29.43
2017-05-19T09:11:02.650Z,29.53
2017-05-19T09:12:18.868Z,29.66
2017-05-19T09:13:34.256Z,29.73
2017-05-19T09:14:48.382Z,29.85
2017-05-19T09:16:03.769Z,30.26
2017-05-19T09:17:19.332Z,30.45
2017-05-19T09:18:33.400Z,30.61
2017-05-19T09:19:48.791Z,30.63
2017-05-19T09:21:04.459Z,30.67
2017-05-19T09:22:20.052Z,30.81
2017-05-19T09:23:35.458Z,31.07
2017-05-19T09:24:49.684Z,31.19
2017-05-19T09:26:04.699Z,31.27
2017-05-19T09:27:18.680Z,31.35
2017-05-19T09:28:34.260Z,31.34
2017-05-19T09:29:49.874Z,31.3
2017-05-19T09:31:03.960Z,31.27
2017-05-19T09:32:18.090Z,31.41
2017-05-19T09:33:33.696Z,31.35
2017-05-19T09:34:47.994Z,31.35
2017-05-19T09:36:02.117Z,31.38
2017-05-19T09:37:17.174Z,31.37
2017-05-19T09:38:31.485Z,31.35
2017-05-19T09:39:46.877Z,31.58
2017-05-19T09:41:02.354Z,31.73
2017-05-19T09:42:16.455Z,32.1
2017-05-19T09:43:30.803Z,32.36
2017-05-19T09:44:44.941Z,32.53
2017-05-19T09:46:00.316Z,32.68
2017-05-19T09:47:12.991Z,32.96
2017-05-19T09:48:26.020Z,33.25
2017-05-19T09:49:40.189Z,33.32
2017-05-19T09:50:56.301Z,33.54
2017-05-19T09:52:11.789Z,33.68
2017-05-19T09:53:27.162Z,33.73
2017-05-19T09:54:42.797Z,33.71
2017-05-19T09:55:58.172Z,33.61
2017-05-19T09:57:13.617Z,33.53
2017-05-19T09:58:29.154Z,33.6
2017-05-19T09:59:43.505Z,33.44
2017-05-19T10:00:57.609Z,33.35
2017-05-19T10:02:11.953Z,33.39
2017-05-19T10:03:27.322Z,33.54
2017-05-19T10:04:42.903Z,33.54
2017-05-19T10:05:58.288Z,33.44
2017-05-19T10:07:13.665Z,33.27
2017-05-19T10:08:28.080Z,33.1
2017-05-19T10:09:43.697Z,33.01
2017-05-19T10:10:59.073Z,32.72
2017-05-19T10:12:11.939Z,32.5
2017-05-19T10:13:26.032Z,32.32
2017-05-19T10:14:40.445Z,32.29
2017-05-19T10:15:54.401Z,32.09
2017-05-19T10:17:09.851Z,32.09
2017-05-19T10:18:23.954Z,32.02
2017-05-19T10:19:38.481Z,31.75
2017-05-19T10:20:53.859Z,31.66
2017-05-19T10:22:09.294Z,31.7
2017-05-19T10:23:24.684Z,31.6
2017-05-19T10:24:40.271Z,31.69
2017-05-19T10:25:55.662Z,31.75
2017-05-19T10:27:10.020Z,31.61
2017-05-19T10:28:25.389Z,31.54
2017-05-19T10:29:40.675Z,31.37
2017-05-19T10:30:56.282Z,31.3
2017-05-19T10:32:10.422Z,31.27
2017-05-19T10:33:25.792Z,31.35
2017-05-19T10:34:40.449Z,31.5
2017-05-19T10:35:55.846Z,31.63
2017-05-19T10:37:11.271Z,31.57
2017-05-19T10:38:24.320Z,31.54
2017-05-19T10:39:39.711Z,31.5
2017-05-19T10:40:54.111Z,31.42
2017-05-19T10:42:40.448Z,31.51
2017-05-19T10:43:54.607Z,31.58
2017-05-19T10:45:08.894Z,31.51
2017-05-19T10:46:22.979Z,31.57
2017-05-19T10:47:38.349Z,31.46
2017-05-19T10:48:52.481Z,31.61
2017-05-19T10:50:07.127Z,31.58
2017-05-19T10:51:22.509Z,31.68
2017-05-19T10:52:36.726Z,31.68
2017-05-19T10:53:52.358Z,31.51
2017-05-19T10:55:07.615Z,31.41
2017-05-19T10:56:20.270Z,31.25
2017-05-19T10:57:34.355Z,31.16
2017-05-19T10:58:48.437Z,31.27
2017-05-19T11:00:03.801Z,31.2
2017-05-19T11:01:16.879Z,31.2
2017-05-19T11:02:31.043Z,31.15
2017-05-19T11:03:46.436Z,31.27
2017-05-19T11:05:00.752Z,31.22
2017-05-19T11:06:16.346Z,31.23
2017-05-19T11:07:30.430Z,31.38
2017-05-19T11:08:44.385Z,31.3
2017-05-19T11:09:58.130Z,31.16
2017-05-19T11:11:13.755Z,31
2017-05-19T11:12:27.864Z,30.79
2017-05-19T11:13:41.616Z,30.66
2017-05-19T11:14:55.740Z,30.67
2017-05-19T11:16:11.414Z,30.69
2017-05-19T11:17:25.541Z,30.64
2017-05-19T11:18:40.973Z,30.53
2017-05-19T11:19:56.342Z,30.54
2017-05-19T11:21:11.920Z,30.45
2017-05-19T11:22:25.649Z,30.35
2017-05-19T11:23:40.109Z,30.3
2017-05-19T11:24:55.469Z,30.37
2017-05-19T11:26:11.097Z,30.59
2017-05-19T11:27:25.201Z,30.56
2017-05-19T11:28:40.636Z,30.6
2017-05-19T11:29:56.045Z,30.76
2017-05-19T11:31:11.972Z,30.75
2017-05-19T11:32:27.370Z,30.72
2017-05-19T11:33:42.813Z,30.78
2017-05-19T11:34:58.198Z,30.93
2017-05-19T11:36:12.551Z,30.93
2017-05-19T11:37:27.974Z,31.07
2017-05-19T11:38:42.057Z,31.2
2017-05-19T11:39:57.458Z,31.15
2017-05-19T11:41:13.084Z,31.09
2017-05-19T11:42:28.600Z,30.98
2017-05-19T11:43:42.671Z,31.05
2017-05-19T11:44:58.055Z,30.96
2017-05-19T11:46:12.478Z,31.01
2017-05-19T11:47:28.067Z,30.93
2017-05-19T11:48:43.464Z,30.88
2017-05-19T11:49:57.443Z,30.85
2017-05-19T11:51:11.538Z,30.82
2017-05-19T11:52:26.923Z,30.85
2017-05-19T11:53:41.079Z,30.83
2017-05-19T11:54:56.471Z,30.78
2017-05-19T11:56:11.932Z,30.78
2017-05-19T11:57:27.614Z,30.86
2017-05-19T11:58:42.981Z,30.98
2017-05-19T11:59:58.405Z,31.13
2017-05-19T12:01:13.857Z,31.2
2017-05-19T12:02:28.225Z,31.23
2017-05-19T12:03:42.437Z,31.15
2017-05-19T12:04:58.092Z,31.19
2017-05-19T12:06:13.466Z,31.2
2017-05-19T12:07:26.462Z,31.25
2017-05-19T12:08:41.846Z,31.35
2017-05-19T12:09:55.937Z,31.35
2017-05-19T12:11:11.347Z,31.3
2017-05-19T12:12:25.778Z,31.25
2017-05-19T12:13:40.807Z,31.1
2017-05-19T12:14:56.221Z,31.03
2017-05-19T12:16:11.595Z,30.88
2017-05-19T12:17:25.908Z,30.86
2017-05-19T12:18:41.339Z,30.83
2017-05-19T12:19:54.010Z,30.7
2017-05-19T12:21:09.511Z,30.69
2017-05-19T12:22:25.157Z,30.53
2017-05-19T12:23:39.252Z,30.47
2017-05-19T12:24:53.223Z,30.35
2017-05-19T12:26:08.694Z,30.25
2017-05-19T12:27:24.069Z,30.17
2017-05-19T12:28:38.348Z,30
2017-05-19T12:29:53.735Z,29.89
2017-05-19T12:31:07.694Z,29.92
2017-05-19T12:32:23.064Z,29.91
2017-05-19T12:33:38.840Z,29.73
2017-05-19T12:34:53.023Z,29.82
2017-05-19T12:36:07.104Z,29.73
2017-05-19T12:37:21.269Z,29.54
2017-05-19T12:38:36.858Z,29.48
2017-05-19T12:39:52.278Z,29.48
2017-05-19T12:41:07.673Z,29.44
2017-05-19T12:42:20.503Z,29.45
2017-05-19T12:43:34.783Z,29.38
2017-05-19T12:44:48.873Z,29.32
2017-05-19T12:46:03.053Z,29.31
2017-05-19T12:47:17.144Z,29.2
2017-05-19T12:48:32.771Z,29.03
2017-05-19T12:49:48.151Z,28.89
2017-05-19T12:51:03.556Z,28.79
2017-05-19T12:52:19.008Z,28.69
2017-05-19T12:54:05.611Z,28.6
2017-05-19T12:55:21.001Z,28.58
2017-05-19T12:56:36.366Z,28.5
2017-05-19T12:57:51.940Z,28.49
2017-05-19T12:59:08.048Z,28.5
2017-05-19T13:00:23.452Z,28.5
2017-05-19T13:01:36.311Z,28.45
2017-05-19T13:02:51.742Z,28.41
2017-05-19T13:04:07.313Z,28.41
2017-05-19T13:05:21.659Z,28.36
2017-05-19T13:06:37.058Z,28.38
2017-05-19T13:07:52.466Z,28.36
2017-05-19T13:09:06.421Z,28.41
2017-05-19T13:10:22.033Z,28.27
2017-05-19T13:11:36.271Z,28.31
2017-05-19T13:12:51.660Z,28.19
2017-05-19T13:14:07.045Z,28.29
2017-05-19T13:15:22.818Z,28.29
2017-05-19T13:16:38.544Z,28.32
2017-05-19T13:17:53.959Z,28.35
2017-05-19T13:19:09.655Z,28.23
2017-05-19T13:20:25.608Z,28.19
2017-05-19T13:21:41.041Z,28.24
2017-05-19T13:22:55.140Z,28.24
2017-05-19T13:24:10.583Z,28.22
2017-05-19T13:25:26.508Z,28.27
2017-05-19T13:26:40.776Z,28.17
2017-05-19T13:27:56.158Z,28.14
2017-05-19T13:29:10.270Z,28.16
2017-05-19T13:30:25.674Z,28.09
2017-05-19T13:31:41.488Z,28.09
2017-05-19T13:32:55.815Z,27.98
2017-05-19T13:34:11.198Z,27.87
2017-05-19T13:35:26.606Z,27.89
2017-05-19T13:36:40.974Z,27.95
2017-05-19T13:37:54.957Z,27.97
2017-05-19T13:39:10.378Z,27.89
2017-05-19T13:40:25.817Z,27.98
2017-05-19T13:41:41.542Z,28.04
2017-05-19T13:42:57.199Z,27.95
2017-05-19T13:44:12.644Z,28.01
2017-05-19T13:45:28.343Z,28.07
2017-05-19T13:46:43.388Z,28.04
2017-05-19T13:47:58.980Z,28.02
2017-05-19T13:49:13.084Z,27.87
2017-05-19T13:50:27.468Z,27.74
2017-05-19T13:51:41.603Z,27.71
2017-05-19T13:52:55.718Z,27.49
2017-05-19T13:54:11.115Z,27.6
2017-05-19T13:55:26.868Z,27.6
2017-05-19T13:56:42.745Z,27.57
2017-05-19T13:57:58.159Z,27.57
2017-05-19T13:59:13.585Z,27.61
2017-05-19T14:00:29.449Z,27.67
2017-05-19T14:01:44.848Z,27.65
2017-05-19T14:03:00.215Z,27.79
2017-05-19T14:04:15.639Z,27.7
2017-05-19T14:05:31.269Z,27.74
2017-05-19T14:06:45.357Z,27.86
2017-05-19T14:07:59.465Z,27.87
2017-05-19T14:09:14.886Z,27.9
2017-05-19T14:10:29.015Z,27.86
2017-05-19T14:11:43.513Z,27.89
2017-05-19T14:12:59.020Z,27.94
2017-05-19T14:14:13.129Z,27.98
2017-05-19T14:15:28.581Z,28.02
2017-05-19T14:16:44.490Z,28.04
2017-05-19T14:17:59.914Z,27.95
2017-05-19T14:19:14.020Z,27.87
2017-05-19T14:20:27.983Z,27.89
2017-05-19T14:21:39.384Z,27.87
2017-05-19T14:22:53.606Z,27.85
2017-05-19T14:24:08.990Z,27.68
2017-05-19T14:25:24.394Z,27.5
2017-05-19T14:26:40.307Z,27.46
2017-05-19T14:27:55.679Z,27.23
2017-05-19T14:29:11.142Z,27.12
2017-05-19T14:30:25.260Z,27.03
2017-05-19T14:31:41.066Z,26.9
2017-05-19T14:32:55.155Z,26.77
2017-05-19T14:34:10.529Z,26.7
2017-05-19T14:35:25.952Z,26.67
2017-05-19T14:36:40.131Z,26.66
2017-05-19T14:37:55.596Z,26.71
2017-05-19T14:39:09.702Z,26.67
2017-05-19T14:40:25.090Z,26.53
2017-05-19T14:41:39.374Z,26.56
2017-05-19T14:42:54.760Z,26.55
2017-05-19T14:44:10.048Z,26.58
2017-05-19T14:45:25.467Z,26.53
2017-05-19T14:46:39.769Z,26.7
2017-05-19T14:47:55.152Z,26.64
2017-05-19T14:49:09.385Z,26.61
2017-05-19T14:50:24.386Z,26.56
2017-05-19T14:51:38.466Z,26.61
2017-05-19T14:52:54.108Z,26.51
2017-05-19T14:54:09.522Z,26.45
2017-05-19T14:55:24.950Z,26.3
2017-05-19T14:56:40.345Z,26.27
2017-05-19T14:57:55.986Z,26.12
2017-05-19T14:59:11.458Z,26.11
2017-05-19T15:00:26.874Z,25.99
2017-05-19T15:01:41.023Z,25.96
2017-05-19T15:02:56.633Z,25.82
2017-05-19T15:04:12.015Z,25.78
2017-05-19T15:05:27.446Z,25.65
2017-05-19T15:06:42.835Z,25.59
2017-05-19T15:07:57.107Z,25.61
2017-05-19T15:09:12.529Z,25.55
2017-05-19T15:10:26.828Z,25.56
2017-05-19T15:11:42.193Z,25.44
2017-05-19T15:12:56.566Z,25.43
2017-05-19T15:14:11.937Z,25.4
2017-05-19T15:15:26.026Z,25.47
2017-05-19T15:16:40.102Z,25.34
2017-05-19T15:17:55.730Z,25.44
2017-05-19T15:19:10.930Z,25.36
2017-05-19T15:20:26.282Z,25.42
2017-05-19T15:21:41.659Z,25.43
2017-05-19T15:22:55.993Z,25.25
2017-05-19T15:24:11.399Z,25.18
2017-05-19T15:25:25.532Z,25.18
2017-05-19T15:26:40.535Z,24.99
2017-05-19T15:27:55.095Z,24.82
2017-05-19T15:29:09.179Z,24.8
2017-05-19T15:30:24.547Z,24.72
2017-05-19T15:31:40.181Z,24.54
2017-05-19T15:32:54.508Z,24.43
2017-05-19T15:34:09.870Z,24.35
2017-05-19T15:35:25.240Z,24.17
2017-05-19T15:36:40.610Z,24.24
2017-05-19T15:37:54.919Z,24.19
2017-05-19T15:39:10.327Z,24.1
2017-05-19T15:40:56.483Z,24.12
2017-05-19T15:42:11.906Z,24.07
2017-05-19T15:43:27.618Z,24
2017-05-19T15:44:41.679Z,23.91
2017-05-19T15:45:57.098Z,23.76
2017-05-19T15:47:12.556Z,23.8
2017-05-19T15:48:28.276Z,23.73
2017-05-19T15:49:42.006Z,23.72
2017-05-19T15:50:57.401Z,23.68
2017-05-19T15:52:12.773Z,23.58
2017-05-19T15:53:28.430Z,23.48
2017-05-19T15:54:43.803Z,23.39
2017-05-19T15:55:53.912Z,23.32
2017-05-19T15:57:09.310Z,23.18
2017-05-19T15:58:24.962Z,23.27
2017-05-19T15:59:38.901Z,23.17
2017-05-19T16:00:50.283Z,23.14
2017-05-19T16:02:05.894Z,22.98
2017-05-19T16:03:21.701Z,22.83
2017-05-19T16:04:36.028Z,22.8
2017-05-19T16:05:51.445Z,22.73
2017-05-19T16:07:04.135Z,22.65
2017-05-19T16:08:19.519Z,22.63
2017-05-19T16:09:35.182Z,22.64